Time;durP1;ratioP1;P1;durP2;ratioP2;P2;SDS_P1;SDS_P2;PMS_P1;PMS_P2;Temp;Humidity;BMP_temperature;BMP_pressure;BME280_temperature;BME280_humidity;BME280_pressure;Samples;Min_cycle;Max_cycle;Signal;HPM_P1;HPM_P2
2023/12/17 09:53:48;;;;;;;;;;;;;;;;;;6217763;23;19915;-92
2023/12/17 09:56:13;;;;;;;;;;;;;;;;;;6246790;23;20234;-85
2023/12/17 09:58:38;;;;;;;;;;;;;;;;;;6220936;23;20228;-93
2023/12/17 10:01:04;;;;;;;;;;;;;;;;;;6249539;22;19955;-88
2023/12/17 10:03:29;;;;;;;;;;;;;;;;;;6221218;23;19907;-88
2023/12/17 10:05:55;;;;;;;;;;;;;;;;;;6248668;23;19941;-93
2023/12/17 10:08:20;;;;;;;;;;;;;;;;;;6220631;23;19907;-85
2023/12/17 10:10:46;;;;;;;;;;;;;;;;;;6247484;22;19913;-86
2023/12/17 10:13:16;;;;;;;;;;;;;;;;;;6247568;23;20235;-89
2023/12/17 10:15:42;;;;;;;;;;;;;;;;;;6247612;23;19916;-85
2023/12/17 10:18:08;;;;;;;;;;;;;;;;;;6248062;23;19911;-85
2023/12/17 10:20:33;;;;;;;;;;;;;;;;;;6247519;22;19961;-83
2023/12/17 10:23:00;;;;;;;;;;;;;;;;;;6248491;23;19958;-85
2023/12/17 10:25:25;;;;;;;;;;;;;;;;;;6247662;23;20319;-85
2023/12/17 10:28:00;;;;;;;;;;;;;;;;;;6247342;23;19962;-82
2023/12/17 10:30:27;;;;;;;;;;;;;;;;;;6247121;22;20337;-84
2023/12/17 10:32:53;;;;;;;;;;;;;;;;;;6220925;23;20203;-84
2023/12/17 10:35:19;;;;;;;;;;;;;;;;;;6248413;23;19957;-84
2023/12/17 10:37:45;;;;;;;;;;;;;;;;;;6247975;23;19995;-90
2023/12/17 10:40:11;;;;;;;;;;;;;;;;;;6221220;23;19986;-86
2023/12/17 10:42:37;;;;;;;;;;;;;;;;;;6247562;23;19908;-88
2023/12/17 10:45:04;;;;;;;;;;;;;;;;;;6220533;23;19904;-85
2023/12/17 10:47:30;;;;;;;;;;;;;;;;;;6247295;23;19937;-84
2023/12/17 10:49:56;;;;;;;;;;;;;;;;;;6247529;22;20337;-87
2023/12/17 10:52:24;;;;;;;;;;;;;;;;;;6220613;23;19986;-84
2023/12/17 10:54:49;;;;;;;;;;;;;;;;;;6247364;23;19916;-85
2023/12/17 10:57:20;;;;;;;;;;;;;;;;;;6248065;23;19915;-85
2023/12/17 10:59:48;;;;;;;;;;;;;;;;;;6248734;22;19907;-84
2023/12/17 11:02:14;;;;;;;;;;;;;;;;;;6222115;23;19954;-85
2023/12/17 11:04:45;;;;;;;;;;;;;;;;;;6248347;23;19911;-83
2023/12/17 11:07:14;;;;;;;;;;;;;;;;;;6247308;23;19907;-82
2023/12/17 11:09:40;;;;;;;;;;;;;;;;;;6247269;22;19907;-82
2023/12/17 11:12:07;;;;;;;;;;;;;;;;;;6247528;23;19993;-82
2023/12/17 11:14:33;;;;;;;;;;;;;;;;;;6220623;23;20242;-82
2023/12/17 11:16:59;;;;;;;;;;;;;;;;;;6247330;23;19914;-80
2023/12/17 11:19:25;;;;;;;;;;;;;;;;;;6246976;22;19950;-82
2023/12/17 11:21:50;;;;;;;;;;;;;;;;;;6246983;23;19908;-83
2023/12/17 11:24:17;;;;;;;;;;;;;;;;;;6219908;23;19914;-84
2023/12/17 11:26:44;;;;;;;;;;;;;;;;;;6248197;23;20389;-80
2023/12/17 11:29:28;;;;;;;;;;;;;;;;;;6247282;23;19915;-81
2023/12/17 11:31:54;;;;;;;;;;;;;;;;;;6220118;23;19935;-80
2023/12/17 11:34:20;;;;;;;;;;;;;;;;;;6246756;23;19907;-81
2023/12/17 11:36:45;;;;;;;;;;;;;;;;;;6221390;23;19914;-81
2023/12/17 11:39:11;;;;;;;;;;;;;;;;;;6248592;23;19979;-81
2023/12/17 11:41:36;;;;;;;;;;;;;;;;;;6248571;22;19907;-82
2023/12/17 11:44:02;;;;;;;;;;;;;;;;;;6248950;23;19910;-83
2023/12/17 11:46:27;;;;;;;;;;;;;;;;;;6221670;23;19915;-78
2023/12/17 11:48:53;;;;;;;;;;;;;;;;;;6248363;23;20277;-77
2023/12/17 11:51:28;;;;;;;;;;;;;;;;;;6248187;22;19927;-79
2023/12/17 11:53:53;;;;;;;;;;;;;;;;;;6248654;23;20299;-78
2023/12/17 11:56:27;;;;;;;;;;;;;;;;;;6249134;23;19911;-84
2023/12/17 11:58:53;;;;;;;;;;;;;;;;;;6249087;23;19907;-83
2023/12/17 12:01:19;;;;;;;;;;;;;;;;;;6221677;23;19930;-85
2023/12/17 12:03:44;;;;;;;;;;;;;;;;;;6249306;23;19907;-84
2023/12/17 12:06:11;;;;;;;;;;;;;;;;;;6222024;23;19912;-84
2023/12/17 12:08:48;;;;;;;;;;;;;;;;;;6248758;23;19947;-83
2023/12/17 12:11:14;;;;;;;;;;;;;;;;;;6197623;23;19981;-82
2023/12/17 12:13:42;;;;;;;;;;;;;;;;;;6248942;23;20302;-85
2023/12/17 12:16:08;;;;;;;;;;;;;;;;;;6222012;23;19908;-82
2023/12/17 12:18:34;;;;;;;;;;;;;;;;;;6248491;23;19903;-84
2023/12/17 12:20:59;;;;;;;;;;;;;;;;;;6221575;23;19915;-83
2023/12/17 12:23:24;;;;;;;;;;;;;;;;;;6248417;23;19911;-83
2023/12/17 12:25:53;;;;;;;;;;;;;;;;;;6221298;23;19903;-85
2023/12/17 12:28:19;;;;;;;;;;;;;;;;;;6248819;23;20293;-83
2023/12/17 12:30:48;;;;;;;;;;;;;;;;;;6221749;23;20033;-83
2023/12/17 12:33:14;;;;;;;;;;;;;;;;;;6221343;23;19914;-83
2023/12/17 12:35:41;;;;;;;;;;;;;;;;;;6248633;23;19915;-85
2023/12/17 12:38:22;;;;;;;;;;;;;;;;;;6248640;23;19935;-84
2023/12/17 12:40:51;;;;;;;;;;;;;;;;;;6248150;22;19907;-83
2023/12/17 12:43:18;;;;;;;;;;;;;;;;;;6248243;23;19908;-83
2023/12/17 12:45:44;;;;;;;;;;;;;;;;;;6251362;23;19918;-84
2023/12/17 12:48:20;;;;;;;;;;;;;;;;;;6221298;23;19958;-83
2023/12/17 12:50:45;;;;;;;;;;;;;;;;;;6248189;22;20341;-83
2023/12/17 12:53:11;;;;;;;;;;;;;;;;;;6248461;23;19911;-83
2023/12/17 12:55:36;;;;;;;;;;;;;;;;;;6247844;23;19921;-83
2023/12/17 12:58:02;;;;;;;;;;;;;;;;;;6221060;23;20015;-84
2023/12/17 13:00:28;;;;;;;;;;;;;;;;;;6247898;22;19913;-84
2023/12/17 13:02:54;;;;;;;;;;;;;;;;;;6248080;23;19977;-83
2023/12/17 13:05:22;;;;;;;;;;;;;;;;;;6248268;23;20278;-85
2023/12/17 13:07:48;;;;;;;;;;;;;;;;;;6247991;23;19930;-85
2023/12/17 13:10:13;;;;;;;;;;;;;;;;;;6248138;22;20337;-84
2023/12/17 13:12:39;;;;;;;;;;;;;;;;;;6248509;23;19977;-84
2023/12/17 13:15:04;;;;;;;;;;;;;;;;;;6249827;23;19953;-81
2023/12/17 13:17:31;;;;;;;;;;;;;;;;;;6248611;23;20329;-82
2023/12/17 13:19:56;;;;;;;;;;;;;;;;;;6221442;23;19953;-84
2023/12/17 13:22:25;;;;;;;;;;;;;;;;;;6248823;23;19938;-86
2023/12/17 13:24:51;;;;;;;;;;;;;;;;;;6248440;23;19910;-83
2023/12/17 13:27:17;;;;;;;;;;;;;;;;;;6248070;23;19954;-81
2023/12/17 13:29:42;;;;;;;;;;;;;;;;;;6248130;22;19908;-78
2023/12/17 13:32:07;;;;;;;;;;;;;;;;;;6222735;23;19908;-80
2023/12/17 13:34:36;;;;;;;;;;;;;;;;;;6221502;23;19939;-81
2023/12/17 13:37:09;;;;;;;;;;;;;;;;;;6249999;23;19955;-79
2023/12/17 13:39:37;;;;;;;;;;;;;;;;;;6221644;22;19915;-79
2023/12/17 19:25:15;;;;;;;3.55;2.85;;;;;;;;;;6208325;22;20058;-86
2023/12/17 19:27:40;;;;;;;4.82;3.15;;;;;;;;;;6218505;23;20036;-83
2023/12/17 19:30:06;;;;;;;4.80;3.38;;;;;;;;;;6218415;23;20000;-82
2023/12/17 19:32:33;;;;;;;;;;;;;;;;;;6218854;23;20004;-81
2023/12/17 19:35:02;;;;;;;;;;;;;;;;;;6218964;23;19931;-83
2023/12/17 19:37:30;;;;;;;;;;;;;;;;;;6218817;23;19915;-83
2023/12/17 19:39:57;;;;;;;;;;;;;;;;;;6219587;23;19908;-84
2023/12/17 19:42:27;;;;;;;;;;;;;;;;;;6192745;23;19965;-83
2023/12/17 19:44:52;;;;;;;;;;;;;;;;;;6218756;23;19982;-83
2023/12/17 19:47:18;;;;;;;;;;;;;;;;;;6219168;23;19910;-83
2023/12/17 19:49:44;;;;;;;;;;;;;;;;;;6219140;23;19912;-84
2023/12/17 19:52:11;;;;;;;;;;;;;;;;;;6218347;23;19930;-83
2023/12/17 19:54:38;;;;;;;;;;;;;;;;;;6219091;23;19911;-86
2023/12/17 19:57:05;;;;;;;;;;;;;;;;;;6190023;23;19908;-79
2023/12/17 19:59:30;;;;;;;;;;;;;;;;;;6192252;23;19911;-84
2023/12/17 20:01:57;;;;;;;;;;;;;;;;;;6218315;23;19979;-83
2023/12/17 20:04:22;;;;;;;;;;;;;;;;;;6218417;23;19911;-83
2023/12/17 20:06:50;;;;;;;;;;;;;;;;;;6218895;23;19910;-81
2023/12/17 20:09:15;;;;;;;;;;;;;;;;;;6218027;23;19908;-82
2023/12/17 20:11:41;;;;;;;;;;;;;;;;;;6218450;23;19954;-82
2023/12/17 20:14:06;;;;;;;;;;;;;;;;;;6217682;23;19914;-84
2023/12/17 20:16:34;;;;;;;;;;;;;;;;;;6220010;23;19912;-83
2023/12/17 20:19:01;;;;;;;;;;;;;;;;;;6218452;23;19908;-82
2023/12/17 20:21:27;;;;;;;;;;;;;;;;;;6219461;23;19908;-81
2023/12/17 20:23:52;;;;;;;;;;;;;;;;;;6191826;23;19922;-83
2023/12/17 20:26:22;;;;;;;;;;;;;;;;;;6245658;23;19911;-88
2023/12/17 20:28:47;;;;;;;;;;;;;;;;;;6249375;23;19908;-82
2023/12/17 20:31:15;;;;;;;;;;;;;;;;;;6249334;23;20239;-82
2023/12/17 20:33:41;;;;;;;;;;;;;;;;;;6249410;22;19907;-85
2023/12/17 20:36:08;;;;;;;;;;;;;;;;;;6249321;23;19930;-87
2023/12/17 20:38:35;;;;;;;;;;;;;;;;;;6222243;23;20326;-81
2023/12/17 20:41:00;;;;;;;;;;;;;;;;;;6248922;23;20207;-83
2023/12/17 20:43:26;;;;;;;;;;;;;;;;;;6248942;22;19961;-82
2023/12/17 20:45:51;;;;;;;;;;;;;;;;;;6221473;23;20390;-82
2023/12/17 20:48:19;;;;;;;;;;;;;;;;;;6248631;23;19907;-83
2023/12/17 20:50:48;;;;;;;;;;;;;;;;;;6248828;23;19907;-85
2023/12/17 20:53:13;;;;;;;;;;;;;;;;;;6221818;23;20234;-82
2023/12/17 20:55:39;;;;;;;;;;;;;;;;;;6248178;23;19907;-80
2023/12/17 20:58:04;;;;;;;;;;;;;;;;;;6221412;23;19907;-81
2023/12/17 21:00:30;;;;;;;;;;;;;;;;;;6221580;23;19907;-83
2023/12/17 21:02:55;;;;;;;;;;;;;;;;;;6248232;22;19907;-86
2023/12/17 21:05:21;;;;;;;;;;;;;;;;;;6248705;23;19911;-84
2023/12/17 21:07:48;;;;;;;;;;;;;;;;;;6221648;23;20006;-83
2023/12/17 21:10:14;;;;;;;;;;;;;;;;;;6222071;23;19911;-84
2023/12/17 21:12:40;;;;;;;;;;;;;;;;;;6249497;22;20349;-83
2023/12/17 21:15:06;;;;;;;;;;;;;;;;;;6222679;23;19943;-85
2023/12/17 21:17:40;;;;;;;;;;;;;;;;;;6223841;23;19907;-85
2023/12/17 21:20:06;;;;;;;;;;;;;;;;;;6253633;23;19930;-87
2023/12/17 21:22:32;;;;;;;;;;;;;;;;;;6226199;23;19919;-84
2023/12/17 21:24:57;;;;;;;;;;;;;;;;;;6234783;23;19911;-85
2023/12/17 21:27:23;;;;;;;;;;;;;;;;;;6235932;23;19907;-85
2023/12/17 21:29:56;;;;;;;;;;;;;;;;;;6235885;23;19931;-85
2023/12/17 21:32:24;;;;;;;;;;;;;;;;;;6261884;22;19914;-85
2023/12/17 21:34:54;;;;;;;;;;;;;;;;;;6262535;23;19914;-86
2023/12/17 21:37:19;;;;;;;;;;;;;;;;;;6236928;23;19914;-85
2023/12/17 21:39:45;;;;;;;;;;;;;;;;;;6262990;23;19907;-85
2023/12/17 21:42:11;;;;;;;;;;;;;;;;;;6237280;22;19907;-85
2023/12/17 21:44:40;;;;;;;;;;;;;;;;;;6263377;23;20295;-85
2023/12/17 21:47:07;;;;;;;;;;;;;;;;;;6267987;23;19926;-87
2023/12/17 21:49:35;;;;;;;;;;;;;;;;;;6241770;23;19912;-84
2023/12/17 21:52:05;;;;;;;;;;;;;;;;;;6241712;22;19955;-84
2023/12/17 21:54:31;;;;;;;;;;;;;;;;;;6267550;23;20049;-84
2023/12/17 21:56:58;;;;;;;;;;;;;;;;;;6268930;23;19907;-84
2023/12/17 21:59:23;;;;;;;;;;;;;;;;;;6270587;22;19933;-87
2023/12/17 22:01:49;;;;;;;;;;;;;;;;;;6271601;22;19911;-86
2023/12/17 22:04:14;;;;;;;;;;;;;;;;;;6270074;23;19908;-86
2023/12/17 22:06:39;;;;;;;;;;;;;;;;;;6262779;23;19915;-86
2023/12/17 22:09:05;;;;;;;;;;;;;;;;;;6260040;23;19911;-86
2023/12/17 22:11:30;;;;;;;;;;;;;;;;;;6260772;23;19908;-86
2023/12/17 22:13:55;;;;;;;;;;;;;;;;;;6244538;23;19951;-86
2023/12/17 22:16:23;;;;;;;;;;;;;;;;;;6267951;23;19907;-86
2023/12/17 22:18:49;;;;;;;;;;;;;;;;;;6266359;23;19921;-87
2023/12/17 22:21:21;;;;;;;;;;;;;;;;;;6236613;23;19908;-86
2023/12/17 22:23:46;;;;;;;;;;;;;;;;;;6235276;23;19919;-86
2023/12/17 22:26:14;;;;;;;;;;;;;;;;;;6266630;23;19989;-86
2023/12/17 22:28:39;;;;;;;;;;;;;;;;;;6251547;23;19907;-86
2023/12/17 22:31:04;;;;;;;;;;;;;;;;;;6222068;23;19908;-86
2023/12/17 22:33:30;;;;;;;;;;;;;;;;;;6222513;23;20279;-86
2023/12/17 22:35:55;;;;;;;;;;;;;;;;;;6221122;23;19915;-85
2023/12/17 22:38:20;;;;;;;;;;;;;;;;;;6248135;23;20231;-86
2023/12/17 22:40:46;;;;;;;;;;;;;;;;;;6247852;23;19980;-86
2023/12/17 22:43:11;;;;;;;;;;;;;;;;;;6248246;22;20315;-85
2023/12/17 22:45:37;;;;;;;;;;;;;;;;;;6259189;23;19903;-84
2023/12/17 22:48:03;;;;;;;;;;;;;;;;;;6236186;23;19911;-85
2023/12/17 22:50:32;;;;;;;;;;;;;;;;;;6264349;23;19907;-85
2023/12/17 22:52:58;;;;;;;;;;;;;;;;;;6263901;22;19908;-85
2023/12/17 22:55:23;;;;;;;;;;;;;;;;;;6240593;23;19919;-85
2023/12/17 22:57:49;;;;;;;;;;;;;;;;;;6273288;22;19912;-86
2023/12/17 23:00:15;;;;;;;;;;;;;;;;;;6248118;23;19902;-85
2023/12/17 23:02:40;;;;;;;;;;;;;;;;;;6248036;23;19926;-85
2023/12/17 23:05:06;;;;;;;;;;;;;;;;;;6274070;22;19954;-85
2023/12/17 23:07:31;;;;;;;;;;;;;;;;;;6248345;22;19903;-85
2023/12/17 23:09:56;;;;;;;;;;;;;;;;;;6248232;23;19939;-85
2023/12/17 23:12:22;;;;;;;;;;;;;;;;;;6274704;22;19915;-85
2023/12/17 23:14:47;;;;;;;;;;;;;;;;;;6274345;23;19895;-85
2023/12/17 23:17:13;;;;;;;;;;;;;;;;;;6274864;22;19896;-85
2023/12/17 23:19:41;;;;;;;;;;;;;;;;;;6274436;22;19922;-85
2023/12/17 23:22:06;;;;;;;;;;;;;;;;;;6274141;22;19912;-84
2023/12/17 23:24:39;;;;;;;;;;;;;;;;;;6238265;23;19922;-87
2023/12/17 23:27:04;;;;;;;;;;;;;;;;;;6246121;23;19895;-88
2023/12/17 23:29:30;;;;;;;;;;;;;;;;;;6262966;23;19908;-93
2023/12/17 23:31:57;;;;;;;;;;;;;;;;;;6251875;22;20326;-89
